Bondar 95 — FM3971 — position and weather

sailwx.info

Track history (hours):
 
Tides and Currents Weather Stations Pressure Air Temp Water Temp Dewpoint Dewpoint Depression Visibility Wind Speed Wind Dir Waves Ship Positions

Bondar 95

Last reported at 2018-Jul-22 22:35 UTC. Time now 2018-Jul-23 06:11 UTC.
Position N 44°50' E 020°38'.

Length 113 m; draft 2 m.

Type: Ship. MMSI: 227133971.

Date/timePositionNaut miles runAvg speedWind from/ knotsBaromVisibWave heightAir tempDewpointWater temp
2018-Jul-22 22:35N 44°50' E 020°38'0 0.1
2018-Jul-22 22:30N 44°50' E 020°38'0 0.0
2018-Jul-22 21:54N 44°50' E 020°38'0 0.0
2018-Jul-22 21:30N 44°50' E 020°38'0 0.0
2018-Jul-22 20:49N 44°50' E 020°38'0 0.0
2018-Jul-22 20:24N 44°50' E 020°38'0 0.0
2018-Jul-22 19:54N 44°50' E 020°38'0 0.0
2018-Jul-22 19:26N 44°50' E 020°38'0 0.0
2018-Jul-22 18:58N 44°50' E 020°38'0 0.0
2018-Jul-22 18:28N 44°50' E 020°38'0 0.0
2018-Jul-22 17:57N 44°50' E 020°38'0 0.0
2018-Jul-22 17:24N 44°50' E 020°38'0 0.0
2018-Jul-22 16:55N 44°50' E 020°38'0 0.0
2018-Jul-22 16:30N 44°50' E 020°38'0 0.0
2018-Jul-22 16:00N 44°50' E 020°38'0 0.1
2018-Jul-22 14:59N 44°50' E 020°38'1 1.1
2018-Jul-22 14:30N 44°51' E 020°39'0 0.1
2018-Jul-22 14:00N 44°51' E 020°39'0 0.0
2018-Jul-22 13:30N 44°51' E 020°39'0 0.0
2018-Jul-22 13:00N 44°51' E 020°39'0 0.0
2018-Jul-22 12:30N 44°51' E 020°39'0 0.0
2018-Jul-22 12:00N 44°51' E 020°39'0 0.0
2018-Jul-22 11:30N 44°51' E 020°39'0 0.0
2018-Jul-22 11:00N 44°51' E 020°39'0 0.0
2018-Jul-22 09:57N 44°51' E 020°39'1 0.1
2018-Jul-21 22:01N 44°50' E 020°38'0 0.0
2018-Jul-21 21:55N 44°50' E 020°38'0 0.0
2018-Jul-21 20:41N 44°50' E 020°38'0 0.0
2018-Jul-21 20:14N 44°50' E 020°38'0 0.0
2018-Jul-21 19:50N 44°50' E 020°38'0 0.0
2018-Jul-21 19:28N 44°50' E 020°38'0 0.0
2018-Jul-21 18:54N 44°50' E 020°38'0 0.0
2018-Jul-21 17:50N 44°50' E 020°38'0 0.0
2018-Jul-21 16:44N 44°50' E 020°38'0 0.0
2018-Jul-21 16:29N 44°50' E 020°38'0 0.0
2018-Jul-21 15:54N 44°50' E 020°38'0 0.7
2018-Jul-21 15:30N 44°50' E 020°39'0 0.5
2018-Jul-21 14:58N 44°50' E 020°38'0 0.4
2018-Jul-21 14:30N 44°50' E 020°38'2 4.1
2018-Jul-21 14:00N 44°48' E 020°38'3 5.2
2018-Jul-21 13:30N 44°46' E 020°38'3 5.1
2018-Jul-21 13:00N 44°44' E 020°41'3 5.1
2018-Jul-21 12:30N 44°42' E 020°43'3 5.1
2018-Jul-21 11:59N 44°40' E 020°45'36 3.0
2018-Jul-21 00:13N 44°46' E 021°35'1 4.9
2018-Jul-21 00:00N 44°45' E 021°36'3 5.2
2018-Jul-20 23:30N 44°43' E 021°37'2 4.9
2018-Jul-20 23:00N 44°41' E 021°40'16 4.2
2018-Jul-20 19:13N 44°36' E 022°01'2 4.0
2018-Jul-20 18:42N 44°34' E 022°02'3 9.3
2018-Jul-20 18:23N 44°32' E 022°04'0 1.2
2018-Jul-20 18:00N 44°31' E 022°04'4 6.4
2018-Jul-20 17:23N 44°28' E 022°08'1 3.4
2018-Jul-20 17:00N 44°28' E 022°10'  
2018-Jul-15 22:19N 44°16' E 028°13'19 5.3
2018-Jul-15 18:44N 44°06' E 028°36'2 0.6
2018-Jul-15 15:58N 44°06' E 028°38'1 3.0
2018-Jul-15 15:29N 44°07' E 028°39'0 0.0
2018-Jul-15 14:58N 44°07' E 028°39'0 0.3
2018-Jul-15 14:25N 44°07' E 028°39'0 0.0
2018-Jul-15 13:59N 44°07' E 028°39'0 0.0
2018-Jul-15 13:30N 44°07' E 028°39'0 0.0
2018-Jul-15 12:57N 44°07' E 028°39'0 0.0
2018-Jul-15 12:28N 44°07' E 028°39'0 0.0
2018-Jul-15 12:00N 44°07' E 028°39'0 0.0
2018-Jul-15 11:28N 44°07' E 028°39'0 0.0
2018-Jul-15 11:00N 44°07' E 028°39'0 0.0
2018-Jul-15 10:27N 44°07' E 028°39'0 0.0
2018-Jul-15 09:54N 44°07' E 028°39'0 0.0
2018-Jul-15 09:29N 44°07' E 028°39'0 0.0
2018-Jul-15 08:51N 44°07' E 028°39'0 0.0
2018-Jul-15 08:30N 44°07' E 028°39'0 0.0
2018-Jul-15 08:00N 44°07' E 028°39'0 0.0
2018-Jul-15 07:31N 44°07' E 028°39'0 0.0
2018-Jul-15 07:00N 44°07' E 028°39'0 0.0
2018-Jul-15 06:26N 44°07' E 028°39'0 0.0
2018-Jul-15 05:57N 44°07' E 028°39'0 0.0
2018-Jul-15 05:23N 44°07' E 028°39'0 0.0
2018-Jul-15 04:57N 44°07' E 028°39'0 0.0
2018-Jul-15 04:25N 44°07' E 028°39'0 0.3
2018-Jul-15 03:58N 44°07' E 028°39'1 2.8
2018-Jul-15 03:30N 44°08' E 028°39'1 1.4
2018-Jul-15 03:01N 44°09' E 028°40'2 3.8
2018-Jul-15 02:30N 44°07' E 028°39'2 4.5
2018-Jul-15 02:00N 44°09' E 028°39'0 0.2
2018-Jul-15 01:29N 44°09' E 028°39'0 0.0
2018-Jul-15 00:57N 44°09' E 028°39'0 0.0
2018-Jul-15 00:31N 44°09' E 028°39'0 0.0
2018-Jul-14 23:58N 44°09' E 028°39'0 0.0
2018-Jul-14 23:26N 44°09' E 028°39'0 0.0
2018-Jul-14 22:59N 44°09' E 028°39'0 0.0
2018-Jul-14 22:30N 44°09' E 028°39'0 0.0
2018-Jul-14 21:55N 44°09' E 028°39'0 0.0
2018-Jul-14 21:30N 44°09' E 028°39'0 0.0
2018-Jul-14 20:58N 44°09' E 028°39'0 0.2
2018-Jul-14 20:29N 44°09' E 028°39'0 0.0
2018-Jul-14 19:59N 44°09' E 028°39'0 0.1
2018-Jul-14 19:29N 44°09' E 028°39'0 0.1
2018-Jul-14 18:54N 44°09' E 028°39'0 0.0
2018-Jul-14 18:31N 44°09' E 028°39'0 0.0
2018-Jul-14 18:00N 44°09' E 028°39'0 0.0
2018-Jul-14 17:27N 44°09' E 028°39'0 0.0
2018-Jul-14 16:58N 44°09' E 028°39'0 0.0
2018-Jul-14 16:30N 44°09' E 028°39'0 0.0
2018-Jul-14 15:59N 44°09' E 028°39'0 0.0
2018-Jul-14 15:28N 44°09' E 028°39'0 0.0
2018-Jul-14 14:54N 44°09' E 028°39'0 0.0
2018-Jul-14 14:18N 44°09' E 028°39'0 0.0
2018-Jul-14 13:29N 44°09' E 028°39'0 0.0
2018-Jul-14 12:55N 44°09' E 028°39'0 0.0
2018-Jul-14 12:28N 44°09' E 028°39'0 0.0
2018-Jul-14 12:01N 44°09' E 028°39'0 0.0
2018-Jul-14 11:30N 44°09' E 028°39'0 0.0
2018-Jul-14 10:59N 44°09' E 028°39'0 0.1
2018-Jul-14 10:26N 44°09' E 028°39'0 0.0
2018-Jul-14 09:40N 44°09' E 028°39'0 0.0
2018-Jul-14 09:16N 44°09' E 028°39'0 1.0
2018-Jul-14 08:58N 44°09' E 028°39'1 2.9
2018-Jul-14 08:30N 44°08' E 028°39'1 2.8
2018-Jul-14 08:00N 44°06' E 028°39'0 0.0
2018-Jul-14 07:30N 44°06' E 028°39'0 0.0
2018-Jul-14 06:57N 44°06' E 028°39'2 4.6
2018-Jul-14 06:30N 44°08' E 028°39'1 2.1
2018-Jul-14 06:00N 44°09' E 028°39'0 0.0
2018-Jul-14 05:30N 44°09' E 028°39'0 0.0
2018-Jul-14 05:01N 44°09' E 028°39'0 0.0
2018-Jul-14 04:26N 44°09' E 028°39'0 0.0
2018-Jul-14 03:54N 44°09' E 028°39'0 0.0
2018-Jul-14 03:30N 44°09' E 028°39'0 0.0
2018-Jul-14 02:57N 44°09' E 028°39'0 0.0
2018-Jul-14 02:31N 44°09' E 028°39'0 0.0
2018-Jul-14 01:58N 44°09' E 028°39'0 0.0
2018-Jul-14 01:28N 44°09' E 028°39'1 1.1
2018-Jul-14 01:00N 44°09' E 028°39'0 0.1
2018-Jul-14 00:29N 44°09' E 028°39'0 0.0
2018-Jul-14 00:00N 44°09' E 028°39'0 0.0
2018-Jul-13 23:30N 44°09' E 028°39'0 0.0
2018-Jul-13 22:58N 44°09' E 028°39'0 0.0
2018-Jul-13 22:28N 44°09' E 028°39'0 0.0
2018-Jul-13 21:59N 44°09' E 028°39'0 0.0
2018-Jul-13 21:27N 44°09' E 028°39'0 0.0
2018-Jul-13 20:57N 44°09' E 028°39'0 0.0
2018-Jul-13 20:29N 44°09' E 028°39'0 0.0
2018-Jul-13 19:56N 44°09' E 028°39'0 0.0
2018-Jul-13 19:29N 44°09' E 028°39'0 0.0
2018-Jul-13 18:58N 44°09' E 028°39'0 0.0
2018-Jul-13 18:30N 44°09' E 028°39'0 0.0
2018-Jul-13 17:59N 44°09' E 028°39'0 0.0
2018-Jul-13 17:28N 44°09' E 028°39'0 0.0
2018-Jul-13 16:57N 44°09' E 028°39'0 0.0
2018-Jul-13 16:30N 44°09' E 028°39'0 0.0
2018-Jul-13 15:57N 44°09' E 028°39'0 0.0
2018-Jul-13 15:29N 44°09' E 028°39'0 0.0
2018-Jul-13 14:57N 44°09' E 028°39'0 0.0
2018-Jul-13 13:57N 44°09' E 028°39'0 0.0
2018-Jul-13 13:25N 44°09' E 028°39'0 0.0
2018-Jul-13 12:55N 44°09' E 028°39'0 0.0
2018-Jul-13 12:28N 44°09' E 028°39'1 1.5
2018-Jul-13 12:00N 44°08' E 028°39'1 2.2
2018-Jul-13 11:30N 44°07' E 028°39'0 0.3
2018-Jul-13 10:53N 44°07' E 028°39'0 0.1
2018-Jul-13 10:29N 44°07' E 028°39'0 0.0
2018-Jul-13 10:00N 44°07' E 028°39'2 4.4
2018-Jul-13 09:30N 44°09' E 028°40'0 0.3
2018-Jul-13 09:00N 44°09' E 028°39'2 3.4
2018-Jul-13 08:25N 44°07' E 028°39'2 5.4
2018-Jul-13 08:01N 44°09' E 028°40'1 1.5
2018-Jul-13 07:29N 44°09' E 028°39'0 0.0
2018-Jul-13 06:58N 44°09' E 028°39'0 0.2
2018-Jul-13 06:29N 44°09' E 028°39'0 0.0
2018-Jul-13 06:00N 44°09' E 028°39'0 0.0
2018-Jul-13 05:30N 44°09' E 028°39'0 0.0
2018-Jul-13 04:58N 44°09' E 028°39'0 0.3
2018-Jul-13 04:31N 44°09' E 028°39'0 0.0
2018-Jul-13 03:54N 44°09' E 028°39'0 0.0
2018-Jul-13 03:27N 44°09' E 028°39'0 0.0
2018-Jul-13 02:55N 44°09' E 028°39'0 0.0
2018-Jul-13 02:31N 44°09' E 028°39'0 0.0
2018-Jul-13 01:58N 44°09' E 028°39'0 0.0
2018-Jul-13 01:28N 44°09' E 028°39'0 0.0
2018-Jul-13 00:59N 44°09' E 028°39'0 0.0
2018-Jul-13 00:31N 44°09' E 028°39'0 0.0
2018-Jul-13 00:00N 44°09' E 028°39'0 0.1
2018-Jul-12 23:30N 44°09' E 028°39'0 0.1
2018-Jul-12 22:58N 44°09' E 028°39'  
Track history (hours):
 
Tides and Currents Weather Stations Pressure Air Temp Water Temp Dewpoint Dewpoint Depression Visibility Wind Speed Wind Dir Waves Ship Positions

Bondar 95

Last reported at 2018-Jul-22 22:35 UTC. Time now 2018-Jul-23 06:11 UTC.
Position N 44°50' E 020°38'.

Length 113 m; draft 2 m.

Type: Ship. MMSI: 227133971.

Date/timePositionNaut miles runAvg speedWind from/ knotsBaromVisibWave heightAir tempDewpointWater temp
2018-Jul-22 22:35N 44°50' E 020°38'0 0.1
2018-Jul-22 22:30N 44°50' E 020°38'0 0.0
2018-Jul-22 21:54N 44°50' E 020°38'0 0.0
2018-Jul-22 21:30N 44°50' E 020°38'0 0.0
2018-Jul-22 20:49N 44°50' E 020°38'0 0.0
2018-Jul-22 20:24N 44°50' E 020°38'0 0.0
2018-Jul-22 19:54N 44°50' E 020°38'0 0.0
2018-Jul-22 19:26N 44°50' E 020°38'0 0.0
2018-Jul-22 18:58N 44°50' E 020°38'0 0.0
2018-Jul-22 18:28N 44°50' E 020°38'0 0.0
2018-Jul-22 17:57N 44°50' E 020°38'0 0.0
2018-Jul-22 17:24N 44°50' E 020°38'0 0.0
2018-Jul-22 16:55N 44°50' E 020°38'0 0.0
2018-Jul-22 16:30N 44°50' E 020°38'0 0.0
2018-Jul-22 16:00N 44°50' E 020°38'0 0.1
2018-Jul-22 14:59N 44°50' E 020°38'1 1.1
2018-Jul-22 14:30N 44°51' E 020°39'0 0.1
2018-Jul-22 14:00N 44°51' E 020°39'0 0.0
2018-Jul-22 13:30N 44°51' E 020°39'0 0.0
2018-Jul-22 13:00N 44°51' E 020°39'0 0.0
2018-Jul-22 12:30N 44°51' E 020°39'0 0.0
2018-Jul-22 12:00N 44°51' E 020°39'0 0.0
2018-Jul-22 11:30N 44°51' E 020°39'0 0.0
2018-Jul-22 11:00N 44°51' E 020°39'0 0.0
2018-Jul-22 09:57N 44°51' E 020°39'1 0.1
2018-Jul-21 22:01N 44°50' E 020°38'0 0.0
2018-Jul-21 21:55N 44°50' E 020°38'0 0.0
2018-Jul-21 20:41N 44°50' E 020°38'0 0.0
2018-Jul-21 20:14N 44°50' E 020°38'0 0.0
2018-Jul-21 19:50N 44°50' E 020°38'0 0.0
2018-Jul-21 19:28N 44°50' E 020°38'0 0.0
2018-Jul-21 18:54N 44°50' E 020°38'0 0.0
2018-Jul-21 17:50N 44°50' E 020°38'0 0.0
2018-Jul-21 16:44N 44°50' E 020°38'0 0.0
2018-Jul-21 16:29N 44°50' E 020°38'0 0.0
2018-Jul-21 15:54N 44°50' E 020°38'0 0.7
2018-Jul-21 15:30N 44°50' E 020°39'0 0.5
2018-Jul-21 14:58N 44°50' E 020°38'0 0.4
2018-Jul-21 14:30N 44°50' E 020°38'2 4.1
2018-Jul-21 14:00N 44°48' E 020°38'3 5.2
2018-Jul-21 13:30N 44°46' E 020°38'3 5.1
2018-Jul-21 13:00N 44°44' E 020°41'3 5.1
2018-Jul-21 12:30N 44°42' E 020°43'3 5.1
2018-Jul-21 11:59N 44°40' E 020°45'36 3.0
2018-Jul-21 00:13N 44°46' E 021°35'1 4.9
2018-Jul-21 00:00N 44°45' E 021°36'3 5.2
2018-Jul-20 23:30N 44°43' E 021°37'2 4.9
2018-Jul-20 23:00N 44°41' E 021°40'16 4.2
2018-Jul-20 19:13N 44°36' E 022°01'2 4.0
2018-Jul-20 18:42N 44°34' E 022°02'3 9.3
2018-Jul-20 18:23N 44°32' E 022°04'0 1.2
2018-Jul-20 18:00N 44°31' E 022°04'4 6.4
2018-Jul-20 17:23N 44°28' E 022°08'1 3.4
2018-Jul-20 17:00N 44°28' E 022°10'  
2018-Jul-15 22:19N 44°16' E 028°13'19 5.3
2018-Jul-15 18:44N 44°06' E 028°36'2 0.6
2018-Jul-15 15:58N 44°06' E 028°38'1 3.0
2018-Jul-15 15:29N 44°07' E 028°39'0 0.0
2018-Jul-15 14:58N 44°07' E 028°39'0 0.3
2018-Jul-15 14:25N 44°07' E 028°39'0 0.0
2018-Jul-15 13:59N 44°07' E 028°39'0 0.0
2018-Jul-15 13:30N 44°07' E 028°39'0 0.0
2018-Jul-15 12:57N 44°07' E 028°39'0 0.0
2018-Jul-15 12:28N 44°07' E 028°39'0 0.0
2018-Jul-15 12:00N 44°07' E 028°39'0 0.0
2018-Jul-15 11:28N 44°07' E 028°39'0 0.0
2018-Jul-15 11:00N 44°07' E 028°39'0 0.0
2018-Jul-15 10:27N 44°07' E 028°39'0 0.0
2018-Jul-15 09:54N 44°07' E 028°39'0 0.0
2018-Jul-15 09:29N 44°07' E 028°39'0 0.0
2018-Jul-15 08:51N 44°07' E 028°39'0 0.0
2018-Jul-15 08:30N 44°07' E 028°39'0 0.0
2018-Jul-15 08:00N 44°07' E 028°39'0 0.0
2018-Jul-15 07:31N 44°07' E 028°39'0 0.0
2018-Jul-15 07:00N 44°07' E 028°39'0 0.0
2018-Jul-15 06:26N 44°07' E 028°39'0 0.0
2018-Jul-15 05:57N 44°07' E 028°39'0 0.0
2018-Jul-15 05:23N 44°07' E 028°39'0 0.0
2018-Jul-15 04:57N 44°07' E 028°39'0 0.0
2018-Jul-15 04:25N 44°07' E 028°39'0 0.3
2018-Jul-15 03:58N 44°07' E 028°39'1 2.8
2018-Jul-15 03:30N 44°08' E 028°39'1 1.4
2018-Jul-15 03:01N 44°09' E 028°40'2 3.8
2018-Jul-15 02:30N 44°07' E 028°39'2 4.5
2018-Jul-15 02:00N 44°09' E 028°39'0 0.2
2018-Jul-15 01:29N 44°09' E 028°39'0 0.0
2018-Jul-15 00:57N 44°09' E 028°39'0 0.0
2018-Jul-15 00:31N 44°09' E 028°39'0 0.0
2018-Jul-14 23:58N 44°09' E 028°39'0 0.0
2018-Jul-14 23:26N 44°09' E 028°39'0 0.0
2018-Jul-14 22:59N 44°09' E 028°39'0 0.0
2018-Jul-14 22:30N 44°09' E 028°39'0 0.0
2018-Jul-14 21:55N 44°09' E 028°39'0 0.0
2018-Jul-14 21:30N 44°09' E 028°39'0 0.0
2018-Jul-14 20:58N 44°09' E 028°39'0 0.2
2018-Jul-14 20:29N 44°09' E 028°39'0 0.0
2018-Jul-14 19:59N 44°09' E 028°39'0 0.1
2018-Jul-14 19:29N 44°09' E 028°39'0 0.1
2018-Jul-14 18:54N 44°09' E 028°39'0 0.0
2018-Jul-14 18:31N 44°09' E 028°39'0 0.0
2018-Jul-14 18:00N 44°09' E 028°39'0 0.0
2018-Jul-14 17:27N 44°09' E 028°39'0 0.0
2018-Jul-14 16:58N 44°09' E 028°39'0 0.0
2018-Jul-14 16:30N 44°09' E 028°39'0 0.0
2018-Jul-14 15:59N 44°09' E 028°39'0 0.0
2018-Jul-14 15:28N 44°09' E 028°39'0 0.0
2018-Jul-14 14:54N 44°09' E 028°39'0 0.0
2018-Jul-14 14:18N 44°09' E 028°39'0 0.0
2018-Jul-14 13:29N 44°09' E 028°39'0 0.0
2018-Jul-14 12:55N 44°09' E 028°39'0 0.0
2018-Jul-14 12:28N 44°09' E 028°39'0 0.0
2018-Jul-14 12:01N 44°09' E 028°39'0 0.0
2018-Jul-14 11:30N 44°09' E 028°39'0 0.0
2018-Jul-14 10:59N 44°09' E 028°39'0 0.1
2018-Jul-14 10:26N 44°09' E 028°39'0 0.0
2018-Jul-14 09:40N 44°09' E 028°39'0 0.0
2018-Jul-14 09:16N 44°09' E 028°39'0 1.0
2018-Jul-14 08:58N 44°09' E 028°39'1 2.9
2018-Jul-14 08:30N 44°08' E 028°39'1 2.8
2018-Jul-14 08:00N 44°06' E 028°39'0 0.0
2018-Jul-14 07:30N 44°06' E 028°39'0 0.0
2018-Jul-14 06:57N 44°06' E 028°39'2 4.6
2018-Jul-14 06:30N 44°08' E 028°39'1 2.1
2018-Jul-14 06:00N 44°09' E 028°39'0 0.0
2018-Jul-14 05:30N 44°09' E 028°39'0 0.0
2018-Jul-14 05:01N 44°09' E 028°39'0 0.0
2018-Jul-14 04:26N 44°09' E 028°39'0 0.0
2018-Jul-14 03:54N 44°09' E 028°39'0 0.0
2018-Jul-14 03:30N 44°09' E 028°39'0 0.0
2018-Jul-14 02:57N 44°09' E 028°39'0 0.0
2018-Jul-14 02:31N 44°09' E 028°39'0 0.0
2018-Jul-14 01:58N 44°09' E 028°39'0 0.0
2018-Jul-14 01:28N 44°09' E 028°39'1 1.1
2018-Jul-14 01:00N 44°09' E 028°39'0 0.1
2018-Jul-14 00:29N 44°09' E 028°39'0 0.0
2018-Jul-14 00:00N 44°09' E 028°39'0 0.0
2018-Jul-13 23:30N 44°09' E 028°39'0 0.0
2018-Jul-13 22:58N 44°09' E 028°39'0 0.0
2018-Jul-13 22:28N 44°09' E 028°39'0 0.0
2018-Jul-13 21:59N 44°09' E 028°39'0 0.0
2018-Jul-13 21:27N 44°09' E 028°39'0 0.0
2018-Jul-13 20:57N 44°09' E 028°39'0 0.0
2018-Jul-13 20:29N 44°09' E 028°39'0 0.0
2018-Jul-13 19:56N 44°09' E 028°39'0 0.0
2018-Jul-13 19:29N 44°09' E 028°39'0 0.0
2018-Jul-13 18:58N 44°09' E 028°39'0 0.0
2018-Jul-13 18:30N 44°09' E 028°39'0 0.0
2018-Jul-13 17:59N 44°09' E 028°39'0 0.0
2018-Jul-13 17:28N 44°09' E 028°39'0 0.0
2018-Jul-13 16:57N 44°09' E 028°39'0 0.0
2018-Jul-13 16:30N 44°09' E 028°39'0 0.0
2018-Jul-13 15:57N 44°09' E 028°39'0 0.0
2018-Jul-13 15:29N 44°09' E 028°39'0 0.0
2018-Jul-13 14:57N 44°09' E 028°39'0 0.0
2018-Jul-13 13:57N 44°09' E 028°39'0 0.0
2018-Jul-13 13:25N 44°09' E 028°39'0 0.0
2018-Jul-13 12:55N 44°09' E 028°39'0 0.0
2018-Jul-13 12:28N 44°09' E 028°39'1 1.5
2018-Jul-13 12:00N 44°08' E 028°39'1 2.2
2018-Jul-13 11:30N 44°07' E 028°39'0 0.3
2018-Jul-13 10:53N 44°07' E 028°39'0 0.1
2018-Jul-13 10:29N 44°07' E 028°39'0 0.0
2018-Jul-13 10:00N 44°07' E 028°39'2 4.4
2018-Jul-13 09:30N 44°09' E 028°40'0 0.3
2018-Jul-13 09:00N 44°09' E 028°39'2 3.4
2018-Jul-13 08:25N 44°07' E 028°39'2 5.4
2018-Jul-13 08:01N 44°09' E 028°40'1 1.5
2018-Jul-13 07:29N 44°09' E 028°39'0 0.0
2018-Jul-13 06:58N 44°09' E 028°39'0 0.2
2018-Jul-13 06:29N 44°09' E 028°39'0 0.0
2018-Jul-13 06:00N 44°09' E 028°39'0 0.0
2018-Jul-13 05:30N 44°09' E 028°39'0 0.0
2018-Jul-13 04:58N 44°09' E 028°39'0 0.3
2018-Jul-13 04:31N 44°09' E 028°39'0 0.0
2018-Jul-13 03:54N 44°09' E 028°39'0 0.0
2018-Jul-13 03:27N 44°09' E 028°39'0 0.0
2018-Jul-13 02:55N 44°09' E 028°39'0 0.0
2018-Jul-13 02:31N 44°09' E 028°39'0 0.0
2018-Jul-13 01:58N 44°09' E 028°39'0 0.0
2018-Jul-13 01:28N 44°09' E 028°39'0 0.0
2018-Jul-13 00:59N 44°09' E 028°39'0 0.0
2018-Jul-13 00:31N 44°09' E 028°39'0 0.0
2018-Jul-13 00:00N 44°09' E 028°39'0 0.1
2018-Jul-12 23:30N 44°09' E 028°39'0 0.1
2018-Jul-12 22:58N 44°09' E 028°39'  

Dump ship's entire track history